sensor_id;sensor_type;location;lat;lon;timestamp;P1;durP1;ratioP1;P2;durP2;ratioP2
7699;SDS011;3892;47.794;19.126;2023-08-21T00:01:02;10.10;;;9.20;;
7699;SDS011;3892;47.794;19.126;2023-08-21T00:03:30;10.43;;;9.53;;
7699;SDS011;3892;47.794;19.126;2023-08-21T00:05:58;10.83;;;9.67;;
7699;SDS011;3892;47.794;19.126;2023-08-21T00:08:26;10.10;;;9.20;;
7699;SDS011;3892;47.794;19.126;2023-08-21T00:10:55;10.17;;;9.37;;
7699;SDS011;3892;47.794;19.126;2023-08-21T00:13:23;10.20;;;9.30;;
7699;SDS011;3892;47.794;19.126;2023-08-21T00:15:51;10.93;;;9.67;;
7699;SDS011;3892;47.794;19.126;2023-08-21T00:18:22;9.83;;;9.13;;
7699;SDS011;3892;47.794;19.126;2023-08-21T00:20:50;10.00;;;9.17;;
7699;SDS011;3892;47.794;19.126;2023-08-21T00:23:18;10.00;;;9.03;;
7699;SDS011;3892;47.794;19.126;2023-08-21T00:25:46;10.40;;;9.50;;
7699;SDS011;3892;47.794;19.126;2023-08-21T00:28:15;9.40;;;8.70;;
7699;SDS011;3892;47.794;19.126;2023-08-21T00:30:44;9.93;;;9.13;;
7699;SDS011;3892;47.794;19.126;2023-08-21T00:33:12;10.13;;;9.33;;
7699;SDS011;3892;47.794;19.126;2023-08-21T00:35:42;9.90;;;9.07;;
7699;SDS011;3892;47.794;19.126;2023-08-21T00:38:10;9.93;;;9.17;;
7699;SDS011;3892;47.794;19.126;2023-08-21T00:40:38;9.63;;;8.83;;
7699;SDS011;3892;47.794;19.126;2023-08-21T00:43:07;10.37;;;9.33;;
7699;SDS011;3892;47.794;19.126;2023-08-21T00:45:35;10.00;;;9.10;;
7699;SDS011;3892;47.794;19.126;2023-08-21T00:48:05;10.50;;;9.50;;
7699;SDS011;3892;47.794;19.126;2023-08-21T00:50:34;10.07;;;9.17;;
7699;SDS011;3892;47.794;19.126;2023-08-21T00:53:03;10.43;;;9.63;;
7699;SDS011;3892;47.794;19.126;2023-08-21T00:55:33;10.07;;;9.27;;
7699;SDS011;3892;47.794;19.126;2023-08-21T00:58:01;10.67;;;9.63;;
7699;SDS011;3892;47.794;19.126;2023-08-21T01:00:30;10.47;;;9.57;;
7699;SDS011;3892;47.794;19.126;2023-08-21T01:02:59;10.40;;;9.60;;
7699;SDS011;3892;47.794;19.126;2023-08-21T01:05:27;12.00;;;9.23;;
7699;SDS011;3892;47.794;19.126;2023-08-21T01:07:57;9.80;;;8.97;;
7699;SDS011;3892;47.794;19.126;2023-08-21T01:10:39;9.53;;;8.83;;
7699;SDS011;3892;47.794;19.126;2023-08-21T01:13:12;10.40;;;9.50;;
7699;SDS011;3892;47.794;19.126;2023-08-21T01:15:50;9.73;;;9.00;;
7699;SDS011;3892;47.794;19.126;2023-08-21T01:18:19;9.77;;;8.80;;
7699;SDS011;3892;47.794;19.126;2023-08-21T01:20:48;9.30;;;8.50;;
7699;SDS011;3892;47.794;19.126;2023-08-21T01:23:29;9.87;;;9.07;;
7699;SDS011;3892;47.794;19.126;2023-08-21T01:26:01;9.73;;;8.93;;
7699;SDS011;3892;47.794;19.126;2023-08-21T01:28:30;10.23;;;9.33;;
7699;SDS011;3892;47.794;19.126;2023-08-21T01:31:01;9.93;;;9.03;;
7699;SDS011;3892;47.794;19.126;2023-08-21T01:33:35;9.53;;;8.83;;
7699;SDS011;3892;47.794;19.126;2023-08-21T01:36:08;10.33;;;9.47;;
7699;SDS011;3892;47.794;19.126;2023-08-21T01:38:38;10.20;;;9.30;;
7699;SDS011;3892;47.794;19.126;2023-08-21T01:41:06;11.20;;;10.20;;
7699;SDS011;3892;47.794;19.126;2023-08-21T01:43:34;10.20;;;9.30;;
7699;SDS011;3892;47.794;19.126;2023-08-21T01:46:02;9.93;;;9.17;;
7699;SDS011;3892;47.794;19.126;2023-08-21T01:48:30;9.70;;;8.80;;
7699;SDS011;3892;47.794;19.126;2023-08-21T01:51:00;9.97;;;9.07;;
7699;SDS011;3892;47.794;19.126;2023-08-21T01:53:28;10.50;;;9.70;;
7699;SDS011;3892;47.794;19.126;2023-08-21T01:55:58;10.33;;;9.57;;
7699;SDS011;3892;47.794;19.126;2023-08-21T01:58:26;9.93;;;9.20;;
7699;SDS011;3892;47.794;19.126;2023-08-21T02:00:54;10.07;;;9.20;;
7699;SDS011;3892;47.794;19.126;2023-08-21T02:03:24;9.83;;;8.93;;
7699;SDS011;3892;47.794;19.126;2023-08-21T02:05:55;10.37;;;9.47;;
7699;SDS011;3892;47.794;19.126;2023-08-21T02:08:26;10.50;;;9.60;;
7699;SDS011;3892;47.794;19.126;2023-08-21T02:10:59;10.97;;;9.83;;
7699;SDS011;3892;47.794;19.126;2023-08-21T02:13:27;10.23;;;9.43;;
7699;SDS011;3892;47.794;19.126;2023-08-21T02:15:56;10.53;;;9.63;;
7699;SDS011;3892;47.794;19.126;2023-08-21T02:18:24;10.10;;;9.30;;
7699;SDS011;3892;47.794;19.126;2023-08-21T02:20:52;10.70;;;9.90;;
7699;SDS011;3892;47.794;19.126;2023-08-21T02:23:20;9.87;;;9.13;;
7699;SDS011;3892;47.794;19.126;2023-08-21T02:25:50;10.40;;;9.50;;
7699;SDS011;3892;47.794;19.126;2023-08-21T02:28:19;10.33;;;9.43;;
7699;SDS011;3892;47.794;19.126;2023-08-21T02:30:48;10.30;;;9.50;;
7699;SDS011;3892;47.794;19.126;2023-08-21T02:33:16;10.63;;;9.67;;
7699;SDS011;3892;47.794;19.126;2023-08-21T02:35:44;9.87;;;9.07;;
7699;SDS011;3892;47.794;19.126;2023-08-21T02:38:12;11.07;;;10.07;;
7699;SDS011;3892;47.794;19.126;2023-08-21T02:40:40;11.23;;;10.13;;
7699;SDS011;3892;47.794;19.126;2023-08-21T02:43:08;10.67;;;9.33;;
7699;SDS011;3892;47.794;19.126;2023-08-21T02:45:38;10.33;;;9.53;;
7699;SDS011;3892;47.794;19.126;2023-08-21T02:48:06;10.70;;;9.70;;
7699;SDS011;3892;47.794;19.126;2023-08-21T02:50:34;10.20;;;9.07;;
7699;SDS011;3892;47.794;19.126;2023-08-21T02:53:02;10.60;;;9.70;;
7699;SDS011;3892;47.794;19.126;2023-08-21T02:55:31;10.50;;;9.60;;
7699;SDS011;3892;47.794;19.126;2023-08-21T02:57:59;10.03;;;9.13;;
7699;SDS011;3892;47.794;19.126;2023-08-21T03:00:27;10.07;;;9.27;;
7699;SDS011;3892;47.794;19.126;2023-08-21T03:02:56;10.20;;;9.20;;
7699;SDS011;3892;47.794;19.126;2023-08-21T03:05:24;10.73;;;9.63;;
7699;SDS011;3892;47.794;19.126;2023-08-21T03:07:52;10.20;;;9.40;;
7699;SDS011;3892;47.794;19.126;2023-08-21T03:10:21;11.20;;;10.10;;
7699;SDS011;3892;47.794;19.126;2023-08-21T03:12:49;11.20;;;10.10;;
7699;SDS011;3892;47.794;19.126;2023-08-21T03:15:17;10.70;;;9.87;;
7699;SDS011;3892;47.794;19.126;2023-08-21T03:17:46;10.60;;;9.73;;
7699;SDS011;3892;47.794;19.126;2023-08-21T03:20:15;11.10;;;10.10;;
7699;SDS011;3892;47.794;19.126;2023-08-21T03:22:44;10.90;;;9.77;;
7699;SDS011;3892;47.794;19.126;2023-08-21T03:25:13;10.80;;;9.87;;
7699;SDS011;3892;47.794;19.126;2023-08-21T03:27:41;10.43;;;9.53;;
7699;SDS011;3892;47.794;19.126;2023-08-21T03:30:10;10.47;;;9.57;;
7699;SDS011;3892;47.794;19.126;2023-08-21T03:32:41;11.03;;;9.10;;
7699;SDS011;3892;47.794;19.126;2023-08-21T03:35:09;10.10;;;9.30;;
7699;SDS011;3892;47.794;19.126;2023-08-21T03:37:38;10.53;;;9.60;;
7699;SDS011;3892;47.794;19.126;2023-08-21T03:40:07;11.37;;;9.70;;
7699;SDS011;3892;47.794;19.126;2023-08-21T03:42:35;9.90;;;9.10;;
7699;SDS011;3892;47.794;19.126;2023-08-21T03:45:04;11.43;;;9.57;;
7699;SDS011;3892;47.794;19.126;2023-08-21T03:47:33;11.10;;;9.93;;
7699;SDS011;3892;47.794;19.126;2023-08-21T03:50:01;11.23;;;10.10;;
7699;SDS011;3892;47.794;19.126;2023-08-21T03:52:29;11.27;;;10.03;;
7699;SDS011;3892;47.794;19.126;2023-08-21T03:54:58;10.30;;;9.40;;
7699;SDS011;3892;47.794;19.126;2023-08-21T03:57:26;11.03;;;9.97;;
7699;SDS011;3892;47.794;19.126;2023-08-21T03:59:54;10.60;;;9.60;;
7699;SDS011;3892;47.794;19.126;2023-08-21T04:02:22;10.90;;;9.20;;
7699;SDS011;3892;47.794;19.126;2023-08-21T04:04:51;13.63;;;10.63;;
7699;SDS011;3892;47.794;19.126;2023-08-21T04:07:19;10.83;;;9.83;;
7699;SDS011;3892;47.794;19.126;2023-08-21T04:09:48;13.90;;;10.33;;
7699;SDS011;3892;47.794;19.126;2023-08-21T04:12:17;11.47;;;10.37;;
7699;SDS011;3892;47.794;19.126;2023-08-21T04:14:45;11.27;;;10.37;;
7699;SDS011;3892;47.794;19.126;2023-08-21T04:17:13;10.80;;;9.67;;
7699;SDS011;3892;47.794;19.126;2023-08-21T04:19:41;13.73;;;10.97;;
7699;SDS011;3892;47.794;19.126;2023-08-21T04:22:10;11.80;;;10.67;;
7699;SDS011;3892;47.794;19.126;2023-08-21T04:24:38;11.10;;;10.00;;
7699;SDS011;3892;47.794;19.126;2023-08-21T04:27:06;11.47;;;10.30;;
7699;SDS011;3892;47.794;19.126;2023-08-21T04:29:36;11.67;;;10.57;;
7699;SDS011;3892;47.794;19.126;2023-08-21T04:32:05;12.20;;;10.33;;
7699;SDS011;3892;47.794;19.126;2023-08-21T04:34:33;11.73;;;10.63;;
7699;SDS011;3892;47.794;19.126;2023-08-21T04:37:02;12.00;;;10.80;;
7699;SDS011;3892;47.794;19.126;2023-08-21T04:39:30;11.27;;;10.30;;
7699;SDS011;3892;47.794;19.126;2023-08-21T04:41:58;12.27;;;10.87;;
7699;SDS011;3892;47.794;19.126;2023-08-21T04:44:26;12.67;;;11.40;;
7699;SDS011;3892;47.794;19.126;2023-08-21T04:46:56;11.83;;;10.57;;
7699;SDS011;3892;47.794;19.126;2023-08-21T04:49:24;12.13;;;10.93;;
7699;SDS011;3892;47.794;19.126;2023-08-21T04:51:55;11.70;;;10.67;;
7699;SDS011;3892;47.794;19.126;2023-08-21T04:54:23;11.90;;;10.77;;
7699;SDS011;3892;47.794;19.126;2023-08-21T04:56:51;11.90;;;10.47;;
7699;SDS011;3892;47.794;19.126;2023-08-21T04:59:19;12.27;;;11.00;;
7699;SDS011;3892;47.794;19.126;2023-08-21T05:01:47;12.90;;;10.87;;
7699;SDS011;3892;47.794;19.126;2023-08-21T05:04:17;11.73;;;10.53;;
7699;SDS011;3892;47.794;19.126;2023-08-21T05:06:45;11.33;;;10.23;;
7699;SDS011;3892;47.794;19.126;2023-08-21T05:09:13;11.87;;;10.77;;
7699;SDS011;3892;47.794;19.126;2023-08-21T05:11:41;10.93;;;9.90;;
7699;SDS011;3892;47.794;19.126;2023-08-21T05:14:09;11.43;;;10.30;;
7699;SDS011;3892;47.794;19.126;2023-08-21T05:16:37;10.90;;;9.90;;
7699;SDS011;3892;47.794;19.126;2023-08-21T05:19:05;11.27;;;10.17;;
7699;SDS011;3892;47.794;19.126;2023-08-21T05:21:35;11.10;;;10.17;;
7699;SDS011;3892;47.794;19.126;2023-08-21T05:24:03;11.63;;;10.57;;
7699;SDS011;3892;47.794;19.126;2023-08-21T05:26:31;25.00;;;22.57;;
7699;SDS011;3892;47.794;19.126;2023-08-21T05:28:59;18.03;;;16.13;;
7699;SDS011;3892;47.794;19.126;2023-08-21T05:31:29;13.20;;;11.97;;
7699;SDS011;3892;47.794;19.126;2023-08-21T05:33:57;11.10;;;10.00;;
7699;SDS011;3892;47.794;19.126;2023-08-21T05:36:25;10.30;;;9.50;;
7699;SDS011;3892;47.794;19.126;2023-08-21T05:38:55;11.17;;;10.00;;
7699;SDS011;3892;47.794;19.126;2023-08-21T05:41:24;13.23;;;10.20;;
7699;SDS011;3892;47.794;19.126;2023-08-21T05:43:52;10.57;;;9.57;;
7699;SDS011;3892;47.794;19.126;2023-08-21T05:46:20;14.73;;;9.83;;
7699;SDS011;3892;47.794;19.126;2023-08-21T05:48:48;11.40;;;10.27;;
7699;SDS011;3892;47.794;19.126;2023-08-21T05:51:16;12.33;;;10.80;;
7699;SDS011;3892;47.794;19.126;2023-08-21T05:53:44;17.93;;;14.13;;
7699;SDS011;3892;47.794;19.126;2023-08-21T05:56:13;13.10;;;11.50;;
7699;SDS011;3892;47.794;19.126;2023-08-21T05:58:41;11.30;;;10.10;;
7699;SDS011;3892;47.794;19.126;2023-08-21T06:01:10;11.90;;;10.43;;
7699;SDS011;3892;47.794;19.126;2023-08-21T06:03:38;12.73;;;10.37;;
7699;SDS011;3892;47.794;19.126;2023-08-21T06:06:06;11.80;;;10.17;;
7699;SDS011;3892;47.794;19.126;2023-08-21T06:08:34;15.60;;;9.93;;
7699;SDS011;3892;47.794;19.126;2023-08-21T06:11:02;14.00;;;10.50;;
7699;SDS011;3892;47.794;19.126;2023-08-21T06:13:32;12.17;;;9.73;;
7699;SDS011;3892;47.794;19.126;2023-08-21T06:16:00;18.57;;;10.00;;
7699;SDS011;3892;47.794;19.126;2023-08-21T06:18:29;15.20;;;10.30;;
7699;SDS011;3892;47.794;19.126;2023-08-21T06:20:57;13.47;;;10.27;;
7699;SDS011;3892;47.794;19.126;2023-08-21T06:23:25;14.17;;;10.13;;
7699;SDS011;3892;47.794;19.126;2023-08-21T06:25:53;21.80;;;10.97;;
7699;SDS011;3892;47.794;19.126;2023-08-21T06:28:21;13.23;;;10.00;;
7699;SDS011;3892;47.794;19.126;2023-08-21T06:30:55;15.53;;;10.67;;
7699;SDS011;3892;47.794;19.126;2023-08-21T06:33:24;13.40;;;9.57;;
7699;SDS011;3892;47.794;19.126;2023-08-21T06:35:52;10.03;;;9.23;;
7699;SDS011;3892;47.794;19.126;2023-08-21T06:38:20;10.53;;;9.50;;
7699;SDS011;3892;47.794;19.126;2023-08-21T06:40:49;10.30;;;9.30;;
7699;SDS011;3892;47.794;19.126;2023-08-21T06:43:17;10.13;;;9.17;;
7699;SDS011;3892;47.794;19.126;2023-08-21T06:45:45;10.47;;;9.50;;
7699;SDS011;3892;47.794;19.126;2023-08-21T06:48:15;9.77;;;8.87;;
7699;SDS011;3892;47.794;19.126;2023-08-21T06:50:44;10.60;;;9.70;;
7699;SDS011;3892;47.794;19.126;2023-08-21T06:53:12;10.80;;;9.77;;
7699;SDS011;3892;47.794;19.126;2023-08-21T06:55:41;10.57;;;9.30;;
7699;SDS011;3892;47.794;19.126;2023-08-21T06:58:09;10.77;;;9.50;;
7699;SDS011;3892;47.794;19.126;2023-08-21T07:00:37;10.97;;;9.57;;
7699;SDS011;3892;47.794;19.126;2023-08-21T07:03:05;12.37;;;9.63;;
7699;SDS011;3892;47.794;19.126;2023-08-21T07:05:35;13.17;;;9.73;;
7699;SDS011;3892;47.794;19.126;2023-08-21T07:08:03;10.93;;;9.53;;
7699;SDS011;3892;47.794;19.126;2023-08-21T07:10:35;13.80;;;9.63;;
7699;SDS011;3892;47.794;19.126;2023-08-21T07:13:04;13.37;;;9.97;;
7699;SDS011;3892;47.794;19.126;2023-08-21T07:15:32;12.50;;;9.53;;
7699;SDS011;3892;47.794;19.126;2023-08-21T07:18:00;10.40;;;9.50;;
7699;SDS011;3892;47.794;19.126;2023-08-21T07:20:28;10.93;;;9.83;;
7699;SDS011;3892;47.794;19.126;2023-08-21T07:22:57;10.70;;;9.70;;
7699;SDS011;3892;47.794;19.126;2023-08-21T07:25:25;9.60;;;8.70;;
7699;SDS011;3892;47.794;19.126;2023-08-21T07:27:54;10.23;;;9.23;;
7699;SDS011;3892;47.794;19.126;2023-08-21T07:30:22;9.77;;;8.50;;
7699;SDS011;3892;47.794;19.126;2023-08-21T07:32:52;11.67;;;9.77;;
7699;SDS011;3892;47.794;19.126;2023-08-21T07:35:20;10.70;;;9.60;;
7699;SDS011;3892;47.794;19.126;2023-08-21T07:37:49;9.50;;;8.67;;
7699;SDS011;3892;47.794;19.126;2023-08-21T07:40:18;11.33;;;9.00;;
7699;SDS011;3892;47.794;19.126;2023-08-21T07:42:46;10.20;;;9.20;;
7699;SDS011;3892;47.794;19.126;2023-08-21T07:45:14;10.17;;;9.17;;
7699;SDS011;3892;47.794;19.126;2023-08-21T07:47:42;11.10;;;9.57;;
7699;SDS011;3892;47.794;19.126;2023-08-21T07:50:11;9.57;;;8.57;;
7699;SDS011;3892;47.794;19.126;2023-08-21T07:52:40;9.87;;;8.87;;
7699;SDS011;3892;47.794;19.126;2023-08-21T07:55:08;10.17;;;9.10;;
7699;SDS011;3892;47.794;19.126;2023-08-21T07:57:38;11.03;;;9.07;;
7699;SDS011;3892;47.794;19.126;2023-08-21T08:00:06;10.57;;;9.33;;
7699;SDS011;3892;47.794;19.126;2023-08-21T08:02:35;9.40;;;8.50;;
7699;SDS011;3892;47.794;19.126;2023-08-21T08:05:04;9.47;;;8.77;;
7699;SDS011;3892;47.794;19.126;2023-08-21T08:07:33;10.33;;;9.23;;
7699;SDS011;3892;47.794;19.126;2023-08-21T08:10:01;10.40;;;9.40;;
7699;SDS011;3892;47.794;19.126;2023-08-21T08:12:29;10.03;;;8.60;;
7699;SDS011;3892;47.794;19.126;2023-08-21T08:15:00;9.70;;;8.80;;
7699;SDS011;3892;47.794;19.126;2023-08-21T08:17:29;9.82;;;8.88;;
7699;SDS011;3892;47.794;19.126;2023-08-21T08:19:57;9.57;;;8.68;;
7699;SDS011;3892;47.794;19.126;2023-08-21T08:22:25;9.57;;;8.68;;
7699;SDS011;3892;47.794;19.126;2023-08-21T08:24:53;9.68;;;8.38;;
7699;SDS011;3892;47.794;19.126;2023-08-21T08:27:21;9.95;;;8.98;;
7699;SDS011;3892;47.794;19.126;2023-08-21T08:29:49;10.70;;;9.70;;
7699;SDS011;3892;47.794;19.126;2023-08-21T08:32:18;10.73;;;9.63;;
7699;SDS011;3892;47.794;19.126;2023-08-21T08:34:47;10.23;;;8.82;;
7699;SDS011;3892;47.794;19.126;2023-08-21T08:37:15;10.60;;;9.60;;
7699;SDS011;3892;47.794;19.126;2023-08-21T08:39:45;9.93;;;9.00;;
7699;SDS011;3892;47.794;19.126;2023-08-21T08:42:14;10.47;;;9.43;;
7699;SDS011;3892;47.794;19.126;2023-08-21T08:44:43;10.32;;;9.48;;
7699;SDS011;3892;47.794;19.126;2023-08-21T08:47:11;9.77;;;8.75;;
7699;SDS011;3892;47.794;19.126;2023-08-21T08:49:40;10.52;;;9.57;;
7699;SDS011;3892;47.794;19.126;2023-08-21T08:52:09;9.77;;;8.88;;
7699;SDS011;3892;47.794;19.126;2023-08-21T08:54:38;9.48;;;8.68;;
7699;SDS011;3892;47.794;19.126;2023-08-21T08:57:06;10.23;;;9.20;;
7699;SDS011;3892;47.794;19.126;2023-08-21T08:59:34;10.07;;;9.00;;
7699;SDS011;3892;47.794;19.126;2023-08-21T09:02:02;9.70;;;8.80;;
7699;SDS011;3892;47.794;19.126;2023-08-21T09:04:31;9.57;;;8.65;;
7699;SDS011;3892;47.794;19.126;2023-08-21T09:07:09;8.43;;;7.72;;
7699;SDS011;3892;47.794;19.126;2023-08-21T09:09:38;9.60;;;8.70;;
7699;SDS011;3892;47.794;19.126;2023-08-21T09:12:09;9.55;;;8.65;;
7699;SDS011;3892;47.794;19.126;2023-08-21T09:14:38;8.75;;;7.93;;
7699;SDS011;3892;47.794;19.126;2023-08-21T09:17:07;8.63;;;7.93;;
7699;SDS011;3892;47.794;19.126;2023-08-21T09:19:35;9.48;;;8.55;;
7699;SDS011;3892;47.794;19.126;2023-08-21T09:22:09;9.02;;;7.80;;
7699;SDS011;3892;47.794;19.126;2023-08-21T09:24:39;9.00;;;8.20;;
7699;SDS011;3892;47.794;19.126;2023-08-21T09:27:12;8.93;;;8.13;;
7699;SDS011;3892;47.794;19.126;2023-08-21T09:29:42;8.02;;;7.32;;
7699;SDS011;3892;47.794;19.126;2023-08-21T09:32:10;8.23;;;7.60;;
7699;SDS011;3892;47.794;19.126;2023-08-21T09:34:38;8.68;;;7.93;;
7699;SDS011;3892;47.794;19.126;2023-08-21T09:37:07;8.07;;;7.38;;
7699;SDS011;3892;47.794;19.126;2023-08-21T09:39:37;8.68;;;7.97;;
7699;SDS011;3892;47.794;19.126;2023-08-21T09:42:05;8.10;;;7.50;;
7699;SDS011;3892;47.794;19.126;2023-08-21T09:44:37;8.82;;;7.70;;
7699;SDS011;3892;47.794;19.126;2023-08-21T09:47:08;8.07;;;7.47;;
7699;SDS011;3892;47.794;19.126;2023-08-21T09:49:37;8.77;;;7.95;;
7699;SDS011;3892;47.794;19.126;2023-08-21T09:52:06;8.27;;;7.45;;
7699;SDS011;3892;47.794;19.126;2023-08-21T09:54:39;8.02;;;7.40;;
7699;SDS011;3892;47.794;19.126;2023-08-21T09:57:08;8.07;;;7.30;;
7699;SDS011;3892;47.794;19.126;2023-08-21T09:59:39;7.75;;;7.15;;
7699;SDS011;3892;47.794;19.126;2023-08-21T10:02:10;8.00;;;7.40;;
7699;SDS011;3892;47.794;19.126;2023-08-21T10:04:38;7.45;;;6.82;;
7699;SDS011;3892;47.794;19.126;2023-08-21T10:07:12;7.47;;;6.88;;
7699;SDS011;3892;47.794;19.126;2023-08-21T10:09:42;7.28;;;6.57;;
7699;SDS011;3892;47.794;19.126;2023-08-21T10:12:11;7.60;;;6.90;;
7699;SDS011;3892;47.794;19.126;2023-08-21T10:14:41;6.97;;;6.38;;
7699;SDS011;3892;47.794;19.126;2023-08-21T10:17:10;7.15;;;6.55;;
7699;SDS011;3892;47.794;19.126;2023-08-21T10:19:38;7.78;;;7.22;;
7699;SDS011;3892;47.794;19.126;2023-08-21T10:22:06;7.22;;;6.63;;
7699;SDS011;3892;47.794;19.126;2023-08-21T10:24:35;7.32;;;6.80;;
7699;SDS011;3892;47.794;19.126;2023-08-21T10:27:06;7.38;;;6.78;;
7699;SDS011;3892;47.794;19.126;2023-08-21T10:29:34;7.80;;;7.15;;
7699;SDS011;3892;47.794;19.126;2023-08-21T10:32:03;7.68;;;7.03;;
7699;SDS011;3892;47.794;19.126;2023-08-21T10:34:33;8.30;;;7.60;;
7699;SDS011;3892;47.794;19.126;2023-08-21T10:37:07;7.53;;;6.93;;
7699;SDS011;3892;47.794;19.126;2023-08-21T10:39:40;7.85;;;7.18;;
7699;SDS011;3892;47.794;19.126;2023-08-21T10:45:11;7.25;;;6.53;;
7699;SDS011;3892;47.794;19.126;2023-08-21T10:47:40;7.20;;;6.65;;
7699;SDS011;3892;47.794;19.126;2023-08-21T10:50:08;7.20;;;6.63;;
7699;SDS011;3892;47.794;19.126;2023-08-21T10:52:37;7.40;;;6.70;;
7699;SDS011;3892;47.794;19.126;2023-08-21T10:55:08;7.10;;;6.47;;
7699;SDS011;3892;47.794;19.126;2023-08-21T10:57:38;7.38;;;6.68;;
7699;SDS011;3892;47.794;19.126;2023-08-21T11:00:08;7.57;;;7.00;;
7699;SDS011;3892;47.794;19.126;2023-08-21T11:02:39;7.90;;;7.10;;
7699;SDS011;3892;47.794;19.126;2023-08-21T11:05:09;7.25;;;6.55;;
7699;SDS011;3892;47.794;19.126;2023-08-21T11:07:39;7.05;;;6.55;;
7699;SDS011;3892;47.794;19.126;2023-08-21T11:10:08;7.55;;;6.85;;
7699;SDS011;3892;47.794;19.126;2023-08-21T11:12:40;8.25;;;6.80;;
7699;SDS011;3892;47.794;19.126;2023-08-21T11:15:16;7.50;;;6.80;;
7699;SDS011;3892;47.794;19.126;2023-08-21T11:17:55;7.70;;;7.00;;
7699;SDS011;3892;47.794;19.126;2023-08-21T11:20:28;7.10;;;6.50;;
7699;SDS011;3892;47.794;19.126;2023-08-21T11:22:57;9.23;;;8.30;;
7699;SDS011;3892;47.794;19.126;2023-08-21T11:25:27;8.90;;;8.05;;
7699;SDS011;3892;47.794;19.126;2023-08-21T11:27:56;7.63;;;7.03;;
7699;SDS011;3892;47.794;19.126;2023-08-21T11:30:24;7.93;;;7.32;;
7699;SDS011;3892;47.794;19.126;2023-08-21T11:33:05;7.18;;;6.60;;
7699;SDS011;3892;47.794;19.126;2023-08-21T11:35:34;6.60;;;6.10;;
7699;SDS011;3892;47.794;19.126;2023-08-21T11:38:02;7.30;;;6.60;;
7699;SDS011;3892;47.794;19.126;2023-08-21T11:40:34;7.40;;;6.80;;
7699;SDS011;3892;47.794;19.126;2023-08-21T11:43:03;7.40;;;6.80;;
7699;SDS011;3892;47.794;19.126;2023-08-21T11:45:34;7.25;;;6.60;;
7699;SDS011;3892;47.794;19.126;2023-08-21T11:48:10;7.15;;;6.60;;
7699;SDS011;3892;47.794;19.126;2023-08-21T11:50:39;6.50;;;5.90;;
7699;SDS011;3892;47.794;19.126;2023-08-21T11:53:08;6.55;;;6.05;;
7699;SDS011;3892;47.794;19.126;2023-08-21T11:55:38;8.23;;;7.60;;
7699;SDS011;3892;47.794;19.126;2023-08-21T11:58:08;7.40;;;6.80;;
7699;SDS011;3892;47.794;19.126;2023-08-21T12:00:36;6.00;;;5.60;;
7699;SDS011;3892;47.794;19.126;2023-08-21T12:03:07;6.68;;;6.15;;
7699;SDS011;3892;47.794;19.126;2023-08-21T12:05:42;6.30;;;5.80;;
7699;SDS011;3892;47.794;19.126;2023-08-21T12:08:11;6.03;;;5.53;;
7699;SDS011;3892;47.794;19.126;2023-08-21T12:10:39;5.82;;;5.43;;
7699;SDS011;3892;47.794;19.126;2023-08-21T12:13:08;6.30;;;5.65;;
7699;SDS011;3892;47.794;19.126;2023-08-21T12:15:36;6.00;;;5.60;;
7699;SDS011;3892;47.794;19.126;2023-08-21T12:18:04;8.00;;;7.30;;
7699;SDS011;3892;47.794;19.126;2023-08-21T12:20:33;7.38;;;6.78;;
7699;SDS011;3892;47.794;19.126;2023-08-21T12:23:01;8.48;;;7.78;;
7699;SDS011;3892;47.794;19.126;2023-08-21T12:25:29;6.13;;;5.70;;
7699;SDS011;3892;47.794;19.126;2023-08-21T12:27:58;5.70;;;5.20;;
7699;SDS011;3892;47.794;19.126;2023-08-21T12:30:34;4.93;;;4.63;;
7699;SDS011;3892;47.794;19.126;2023-08-21T12:33:03;4.93;;;4.53;;
7699;SDS011;3892;47.794;19.126;2023-08-21T12:35:38;4.72;;;4.38;;
7699;SDS011;3892;47.794;19.126;2023-08-21T12:38:10;5.88;;;5.47;;
7699;SDS011;3892;47.794;19.126;2023-08-21T12:40:39;6.00;;;5.40;;
7699;SDS011;3892;47.794;19.126;2023-08-21T12:43:07;5.13;;;4.72;;
7699;SDS011;3892;47.794;19.126;2023-08-21T12:45:37;5.70;;;5.10;;
7699;SDS011;3892;47.794;19.126;2023-08-21T12:48:05;6.00;;;5.40;;
7699;SDS011;3892;47.794;19.126;2023-08-21T12:50:33;6.88;;;5.25;;
7699;SDS011;3892;47.794;19.126;2023-08-21T12:53:01;5.30;;;4.68;;
7699;SDS011;3892;47.794;19.126;2023-08-21T12:55:30;5.20;;;4.80;;
7699;SDS011;3892;47.794;19.126;2023-08-21T12:57:58;5.28;;;4.78;;
7699;SDS011;3892;47.794;19.126;2023-08-21T13:00:26;5.43;;;4.60;;
7699;SDS011;3892;47.794;19.126;2023-08-21T13:02:56;5.32;;;4.82;;
7699;SDS011;3892;47.794;19.126;2023-08-21T13:05:24;4.97;;;4.68;;
7699;SDS011;3892;47.794;19.126;2023-08-21T13:07:52;7.35;;;4.50;;
7699;SDS011;3892;47.794;19.126;2023-08-21T13:10:20;4.55;;;4.20;;
7699;SDS011;3892;47.794;19.126;2023-08-21T13:12:48;4.93;;;4.47;;
7699;SDS011;3892;47.794;19.126;2023-08-21T13:15:18;4.47;;;4.07;;
7699;SDS011;3892;47.794;19.126;2023-08-21T13:17:46;4.65;;;4.30;;
7699;SDS011;3892;47.794;19.126;2023-08-21T13:20:16;6.20;;;4.72;;
7699;SDS011;3892;47.794;19.126;2023-08-21T13:22:44;4.80;;;4.40;;
7699;SDS011;3892;47.794;19.126;2023-08-21T13:25:13;4.85;;;4.45;;
7699;SDS011;3892;47.794;19.126;2023-08-21T13:27:41;5.32;;;4.82;;
7699;SDS011;3892;47.794;19.126;2023-08-21T13:30:10;5.00;;;4.70;;
7699;SDS011;3892;47.794;19.126;2023-08-21T13:32:39;4.60;;;4.30;;
7699;SDS011;3892;47.794;19.126;2023-08-21T13:35:07;4.55;;;4.15;;
7699;SDS011;3892;47.794;19.126;2023-08-21T13:37:38;4.95;;;4.55;;
7699;SDS011;3892;47.794;19.126;2023-08-21T13:40:07;5.45;;;5.05;;
7699;SDS011;3892;47.794;19.126;2023-08-21T13:42:38;5.15;;;4.75;;
7699;SDS011;3892;47.794;19.126;2023-08-21T13:45:08;5.07;;;4.68;;
7699;SDS011;3892;47.794;19.126;2023-08-21T13:47:37;5.18;;;4.78;;
7699;SDS011;3892;47.794;19.126;2023-08-21T13:50:06;4.95;;;4.55;;
7699;SDS011;3892;47.794;19.126;2023-08-21T13:52:35;4.72;;;4.22;;
7699;SDS011;3892;47.794;19.126;2023-08-21T13:55:06;5.70;;;5.10;;
7699;SDS011;3892;47.794;19.126;2023-08-21T13:57:35;6.13;;;4.80;;
7699;SDS011;3892;47.794;19.126;2023-08-21T14:00:04;5.28;;;4.65;;
7699;SDS011;3892;47.794;19.126;2023-08-21T14:02:34;5.45;;;4.82;;
7699;SDS011;3892;47.794;19.126;2023-08-21T14:05:02;9.70;;;4.70;;
7699;SDS011;3892;47.794;19.126;2023-08-21T14:07:32;5.28;;;4.80;;
7699;SDS011;3892;47.794;19.126;2023-08-21T14:10:02;4.93;;;4.50;;
7699;SDS011;3892;47.794;19.126;2023-08-21T14:12:31;5.18;;;4.68;;
7699;SDS011;3892;47.794;19.126;2023-08-21T14:14:59;16.17;;;14.68;;
7699;SDS011;3892;47.794;19.126;2023-08-21T14:17:28;5.65;;;4.72;;
7699;SDS011;3892;47.794;19.126;2023-08-21T14:19:56;4.80;;;4.50;;
7699;SDS011;3892;47.794;19.126;2023-08-21T14:22:24;5.20;;;4.80;;
7699;SDS011;3892;47.794;19.126;2023-08-21T14:24:53;10.02;;;4.95;;
7699;SDS011;3892;47.794;19.126;2023-08-21T14:27:22;5.05;;;4.70;;
7699;SDS011;3892;47.794;19.126;2023-08-21T14:29:51;5.00;;;4.50;;
7699;SDS011;3892;47.794;19.126;2023-08-21T14:32:19;5.15;;;4.75;;
7699;SDS011;3892;47.794;19.126;2023-08-21T14:34:47;5.55;;;5.05;;
7699;SDS011;3892;47.794;19.126;2023-08-21T14:37:15;4.75;;;4.38;;
7699;SDS011;3892;47.794;19.126;2023-08-21T14:39:43;5.15;;;4.70;;
7699;SDS011;3892;47.794;19.126;2023-08-21T14:42:11;6.45;;;4.68;;
7699;SDS011;3892;47.794;19.126;2023-08-21T14:44:41;4.88;;;4.47;;
7699;SDS011;3892;47.794;19.126;2023-08-21T14:47:09;5.18;;;4.70;;
7699;SDS011;3892;47.794;19.126;2023-08-21T14:49:38;5.68;;;4.85;;
7699;SDS011;3892;47.794;19.126;2023-08-21T14:52:07;5.63;;;5.03;;
7699;SDS011;3892;47.794;19.126;2023-08-21T14:54:35;6.75;;;4.63;;
7699;SDS011;3892;47.794;19.126;2023-08-21T14:57:03;5.03;;;4.60;;
7699;SDS011;3892;47.794;19.126;2023-08-21T14:59:32;5.10;;;4.70;;
7699;SDS011;3892;47.794;19.126;2023-08-21T15:02:01;5.22;;;4.80;;
7699;SDS011;3892;47.794;19.126;2023-08-21T15:04:29;5.35;;;4.72;;
7699;SDS011;3892;47.794;19.126;2023-08-21T15:06:57;5.00;;;4.70;;